sensor_id;sensor_type;location;lat;lon;timestamp;pressure;altitude;pressure_sealevel;temperature;humidity
54808;BME280;40708;50.364;7.550;2022-09-13T00:00:41;100030.72;;;15.10;100.00
54808;BME280;40708;50.364;7.550;2022-09-13T00:03:08;100037.78;;;15.13;100.00
54808;BME280;40708;50.364;7.550;2022-09-13T00:05:35;100037.88;;;15.10;100.00
54808;BME280;40708;50.364;7.550;2022-09-13T00:08:00;100037.13;;;15.03;100.00
54808;BME280;40708;50.364;7.550;2022-09-13T00:10:26;100046.13;;;14.99;100.00
54808;BME280;40708;50.364;7.550;2022-09-13T00:12:52;100030.19;;;14.96;100.00
54808;BME280;40708;50.364;7.550;2022-09-13T00:15:18;100030.31;;;14.90;100.00
54808;BME280;40708;50.364;7.550;2022-09-13T00:17:43;100024.22;;;14.85;100.00
54808;BME280;40708;50.364;7.550;2022-09-13T00:20:09;100030.63;;;14.78;100.00
54808;BME280;40708;50.364;7.550;2022-09-13T00:22:35;100041.31;;;14.78;100.00
54808;BME280;40708;50.364;7.550;2022-09-13T00:25:01;100035.03;;;14.79;100.00
54808;BME280;40708;50.364;7.550;2022-09-13T00:27:26;100025.06;;;14.87;100.00
54808;BME280;40708;50.364;7.550;2022-09-13T00:29:51;100022.16;;;14.96;100.00
54808;BME280;40708;50.364;7.550;2022-09-13T00:32:17;100018.69;;;14.93;100.00
54808;BME280;40708;50.364;7.550;2022-09-13T00:34:42;100016.13;;;14.88;100.00
54808;BME280;40708;50.364;7.550;2022-09-13T00:37:08;100021.59;;;14.83;100.00
54808;BME280;40708;50.364;7.550;2022-09-13T00:39:33;100025.38;;;14.73;100.00
54808;BME280;40708;50.364;7.550;2022-09-13T00:41:59;100028.84;;;14.77;100.00
54808;BME280;40708;50.364;7.550;2022-09-13T00:44:57;100020.06;;;14.72;100.00
54808;BME280;40708;50.364;7.550;2022-09-13T00:47:41;100013.03;;;14.69;100.00
54808;BME280;40708;50.364;7.550;2022-09-13T00:52:42;100003.44;;;14.61;100.00
54808;BME280;40708;50.364;7.550;2022-09-13T00:55:31;99992.88;;;14.55;100.00
54808;BME280;40708;50.364;7.550;2022-09-13T00:58:03;99990.19;;;14.56;100.00
54808;BME280;40708;50.364;7.550;2022-09-13T01:00:29;99997.31;;;14.56;100.00
54808;BME280;40708;50.364;7.550;2022-09-13T01:02:58;99991.28;;;14.48;100.00
54808;BME280;40708;50.364;7.550;2022-09-13T01:05:28;99994.97;;;14.41;100.00
54808;BME280;40708;50.364;7.550;2022-09-13T01:07:55;100010.22;;;14.36;100.00
54808;BME280;40708;50.364;7.550;2022-09-13T01:10:21;100010.22;;;14.36;100.00
54808;BME280;40708;50.364;7.550;2022-09-13T01:13:04;100008.44;;;14.36;100.00
54808;BME280;40708;50.364;7.550;2022-09-13T01:15:37;100007.41;;;14.42;100.00
54808;BME280;40708;50.364;7.550;2022-09-13T01:18:03;100001.19;;;14.43;100.00
54808;BME280;40708;50.364;7.550;2022-09-13T01:44:18;100040.38;;;14.39;100.00
54808;BME280;40708;50.364;7.550;2022-09-13T01:50:10;100024.19;;;14.47;100.00
54808;BME280;40708;50.364;7.550;2022-09-13T01:52:55;100022.25;;;14.55;100.00
54808;BME280;40708;50.364;7.550;2022-09-13T01:58:20;100020.22;;;14.66;100.00
54808;BME280;40708;50.364;7.550;2022-09-13T02:00:55;100018.31;;;14.71;100.00
54808;BME280;40708;50.364;7.550;2022-09-13T02:03:47;100029.75;;;14.76;100.00
54808;BME280;40708;50.364;7.550;2022-09-13T02:06:20;100026.13;;;14.78;100.00
54808;BME280;40708;50.364;7.550;2022-09-13T02:08:50;100022.53;;;14.81;100.00
54808;BME280;40708;50.364;7.550;2022-09-13T02:11:18;100017.09;;;14.85;100.00
54808;BME280;40708;50.364;7.550;2022-09-13T02:13:50;100020.59;;;14.87;100.00
54808;BME280;40708;50.364;7.550;2022-09-13T02:16:28;100023.19;;;14.90;100.00
54808;BME280;40708;50.364;7.550;2022-09-13T02:19:02;100011.63;;;14.90;100.00
54808;BME280;40708;50.364;7.550;2022-09-13T02:21:33;100013.41;;;14.91;100.00
54808;BME280;40708;50.364;7.550;2022-09-13T02:24:03;100009.88;;;14.89;100.00
54808;BME280;40708;50.364;7.550;2022-09-13T02:26:30;100008.97;;;14.90;100.00
54808;BME280;40708;50.364;7.550;2022-09-13T02:29:01;100004.56;;;14.89;100.00
54808;BME280;40708;50.364;7.550;2022-09-13T02:31:34;100012.56;;;14.87;100.00
54808;BME280;40708;50.364;7.550;2022-09-13T02:34:18;100006.41;;;14.85;100.00
54808;BME280;40708;50.364;7.550;2022-09-13T02:36:45;100004.63;;;14.84;100.00
54808;BME280;40708;50.364;7.550;2022-09-13T02:39:15;99997.66;;;14.79;100.00
54808;BME280;40708;50.364;7.550;2022-09-13T02:42:02;100010.13;;;14.78;100.00
54808;BME280;40708;50.364;7.550;2022-09-13T02:44:35;100008.41;;;14.76;100.00
54808;BME280;40708;50.364;7.550;2022-09-13T02:49:53;100004.25;;;14.64;100.00
54808;BME280;40708;50.364;7.550;2022-09-13T02:55:28;99998.09;;;14.61;100.00
54808;BME280;40708;50.364;7.550;2022-09-13T03:00:32;99991.16;;;14.54;100.00
54808;BME280;40708;50.364;7.550;2022-09-13T03:03:02;99989.44;;;14.50;100.00
54808;BME280;40708;50.364;7.550;2022-09-13T03:05:28;99988.63;;;14.46;100.00
54808;BME280;40708;50.364;7.550;2022-09-13T03:07:54;99991.41;;;14.42;100.00
54808;BME280;40708;50.364;7.550;2022-09-13T03:10:20;99984.41;;;14.38;100.00
54808;BME280;40708;50.364;7.550;2022-09-13T03:13:04;99982.69;;;14.34;100.00
54808;BME280;40708;50.364;7.550;2022-09-13T03:18:28;99981.06;;;14.25;100.00
54808;BME280;40708;50.364;7.550;2022-09-13T03:21:11;99967.78;;;14.22;100.00
54808;BME280;40708;50.364;7.550;2022-09-13T03:26:44;99970.56;;;14.17;100.00
54808;BME280;40708;50.364;7.550;2022-09-13T03:29:34;99969.69;;;14.17;100.00
54808;BME280;40708;50.364;7.550;2022-09-13T03:32:17;99973.19;;;14.19;100.00
54808;BME280;40708;50.364;7.550;2022-09-13T03:37:49;99965.94;;;14.25;100.00
54808;BME280;40708;50.364;7.550;2022-09-13T03:40:33;99956.94;;;14.29;100.00
54808;BME280;40708;50.364;7.550;2022-09-13T03:45:51;99960.38;;;14.38;100.00
54808;BME280;40708;50.364;7.550;2022-09-13T03:48:19;99963.06;;;14.36;100.00
54808;BME280;40708;50.364;7.550;2022-09-13T03:50:46;99964.78;;;14.39;100.00
54808;BME280;40708;50.364;7.550;2022-09-13T03:53:15;99960.22;;;14.44;100.00
54808;BME280;40708;50.364;7.550;2022-09-13T03:55:43;99960.22;;;14.44;100.00
54808;BME280;40708;50.364;7.550;2022-09-13T03:58:14;99965.56;;;14.44;100.00
54808;BME280;40708;50.364;7.550;2022-09-13T04:00:40;99960.22;;;14.44;100.00
54808;BME280;40708;50.364;7.550;2022-09-13T04:03:06;99961.16;;;14.43;100.00
54808;BME280;40708;50.364;7.550;2022-09-13T04:05:32;99953.13;;;14.43;100.00
54808;BME280;40708;50.364;7.550;2022-09-13T04:07:59;99952.19;;;14.44;100.00
54808;BME280;40708;50.364;7.550;2022-09-13T04:10:26;99943.31;;;14.45;100.00
54808;BME280;40708;50.364;7.550;2022-09-13T04:12:53;99946.81;;;14.47;100.00
54808;BME280;40708;50.364;7.550;2022-09-13T04:15:18;99940.56;;;14.48;100.00
54808;BME280;40708;50.364;7.550;2022-09-13T04:17:43;99935.16;;;14.49;100.00
54808;BME280;40708;50.364;7.550;2022-09-13T04:20:08;99933.34;;;14.51;100.00
54808;BME280;40708;50.364;7.550;2022-09-13T04:22:35;99937.78;;;14.52;100.00
54808;BME280;40708;50.364;7.550;2022-09-13T04:25:00;99941.31;;;14.53;100.00
54808;BME280;40708;50.364;7.550;2022-09-13T04:27:26;99944.88;;;14.53;100.00
54808;BME280;40708;50.364;7.550;2022-09-13T04:29:51;99945.75;;;14.54;100.00
54808;BME280;40708;50.364;7.550;2022-09-13T04:32:16;99943.84;;;14.59;100.00
54808;BME280;40708;50.364;7.550;2022-09-13T04:34:41;99953.59;;;14.60;100.00
54808;BME280;40708;50.364;7.550;2022-09-13T04:37:07;99956.25;;;14.61;100.00
54808;BME280;40708;50.364;7.550;2022-09-13T04:39:33;99960.75;;;14.59;100.00
54808;BME280;40708;50.364;7.550;2022-09-13T04:41:58;99958.88;;;14.63;100.00
54808;BME280;40708;50.364;7.550;2022-09-13T04:44:24;99959.69;;;14.66;100.00
54808;BME280;40708;50.364;7.550;2022-09-13T04:46:49;99956.19;;;14.64;100.00
54808;BME280;40708;50.364;7.550;2022-09-13T04:49:16;99959.72;;;14.65;100.00
54808;BME280;40708;50.364;7.550;2022-09-13T04:51:42;99973.06;;;14.65;100.00
54808;BME280;40708;50.364;7.550;2022-09-13T04:54:08;99974.88;;;14.64;100.00
54808;BME280;40708;50.364;7.550;2022-09-13T04:56:34;99976.66;;;14.64;100.00
54808;BME280;40708;50.364;7.550;2022-09-13T04:59:00;99980.16;;;14.66;100.00
54808;BME280;40708;50.364;7.550;2022-09-13T05:01:25;99978.41;;;14.65;100.00
54808;BME280;40708;50.364;7.550;2022-09-13T05:03:51;99990.72;;;14.72;100.00
54808;BME280;40708;50.364;7.550;2022-09-13T05:06:19;100007.50;;;14.77;100.00
54808;BME280;40708;50.364;7.550;2022-09-13T05:08:50;100005.63;;;14.80;100.00
54808;BME280;40708;50.364;7.550;2022-09-13T05:11:18;99999.28;;;14.86;100.00
54808;BME280;40708;50.364;7.550;2022-09-13T05:13:47;100001.75;;;14.94;100.00
54808;BME280;40708;50.364;7.550;2022-09-13T05:16:16;99996.34;;;14.95;100.00
54808;BME280;40708;50.364;7.550;2022-09-13T05:18:42;99989.16;;;14.99;100.00
54808;BME280;40708;50.364;7.550;2022-09-13T05:21:08;99983.06;;;14.94;100.00
54808;BME280;40708;50.364;7.550;2022-09-13T05:23:33;99985.69;;;14.95;100.00
54808;BME280;40708;50.364;7.550;2022-09-13T05:26:01;99989.09;;;15.02;100.00
54808;BME280;40708;50.364;7.550;2022-09-13T05:28:28;100002.31;;;15.06;100.00
54808;BME280;40708;50.364;7.550;2022-09-13T05:30:56;100004.91;;;15.11;100.00
54808;BME280;40708;50.364;7.550;2022-09-13T05:33:22;100006.69;;;15.10;100.00
54808;BME280;40708;50.364;7.550;2022-09-13T05:35:47;100002.91;;;15.19;100.00
54808;BME280;40708;50.364;7.550;2022-09-13T05:38:12;100002.84;;;15.20;100.00
54808;BME280;40708;50.364;7.550;2022-09-13T05:40:38;100001.88;;;15.24;100.00
54808;BME280;40708;50.364;7.550;2022-09-13T05:43:03;100004.44;;;15.29;100.00
54808;BME280;40708;50.364;7.550;2022-09-13T05:45:29;100003.38;;;15.34;100.00
54808;BME280;40708;50.364;7.550;2022-09-13T05:47:54;99997.97;;;15.37;100.00
54808;BME280;40708;50.364;7.550;2022-09-13T05:50:19;99988.94;;;15.41;100.00
54808;BME280;40708;50.364;7.550;2022-09-13T05:52:53;99993.31;;;15.45;100.00
54808;BME280;40708;50.364;7.550;2022-09-13T05:55:19;100000.25;;;15.53;100.00
54808;BME280;40708;50.364;7.550;2022-09-13T05:57:45;99996.63;;;15.55;100.00
54808;BME280;40708;50.364;7.550;2022-09-13T06:00:11;99993.03;;;15.56;100.00
54808;BME280;40708;50.364;7.550;2022-09-13T06:02:36;99998.09;;;15.67;100.00
54808;BME280;40708;50.364;7.550;2022-09-13T06:05:01;100007.00;;;15.67;100.00
54808;BME280;40708;50.364;7.550;2022-09-13T06:07:27;100008.72;;;15.70;100.00
54808;BME280;40708;50.364;7.550;2022-09-13T06:09:52;100014.00;;;15.71;100.00
54808;BME280;40708;50.364;7.550;2022-09-13T06:12:18;100003.22;;;15.76;100.00
54808;BME280;40708;50.364;7.550;2022-09-13T06:14:43;100004.78;;;15.83;100.00
54808;BME280;40708;50.364;7.550;2022-09-13T06:17:08;100003.69;;;15.90;100.00
54808;BME280;40708;50.364;7.550;2022-09-13T06:19:33;100014.13;;;15.99;100.00
54808;BME280;40708;50.364;7.550;2022-09-13T06:21:59;100019.47;;;15.99;100.00
54808;BME280;40708;50.364;7.550;2022-09-13T06:24:24;100014.94;;;16.02;100.00
54808;BME280;40708;50.364;7.550;2022-09-13T06:26:49;100014.69;;;16.10;100.00
54808;BME280;40708;50.364;7.550;2022-09-13T06:29:15;100015.72;;;16.06;100.00
54808;BME280;40708;50.364;7.550;2022-09-13T06:31:40;100007.78;;;16.03;100.00
54808;BME280;40708;50.364;7.550;2022-09-13T06:34:10;100011.03;;;16.14;100.00
54808;BME280;40708;50.364;7.550;2022-09-13T06:36:36;99993.91;;;16.20;100.00
54808;BME280;40708;50.364;7.550;2022-09-13T06:39:01;100001.72;;;16.27;100.00
54808;BME280;40708;50.364;7.550;2022-09-13T06:41:28;99985.03;;;16.18;100.00
54808;BME280;40708;50.364;7.550;2022-09-13T06:43:56;99981.34;;;16.22;100.00
54808;BME280;40708;50.364;7.550;2022-09-13T06:46:22;99974.94;;;16.27;100.00
54808;BME280;40708;50.364;7.550;2022-09-13T06:48:48;99970.09;;;16.40;100.00
54808;BME280;40708;50.364;7.550;2022-09-13T06:51:16;99965.47;;;16.45;100.00
54808;BME280;40708;50.364;7.550;2022-09-13T06:53:42;99957.53;;;16.42;100.00
54808;BME280;40708;50.364;7.550;2022-09-13T06:56:14;99956.16;;;16.58;100.00
54808;BME280;40708;50.364;7.550;2022-09-13T06:58:41;99950.69;;;16.61;100.00
54808;BME280;40708;50.364;7.550;2022-09-13T07:01:15;99937.22;;;16.64;100.00
54808;BME280;40708;50.364;7.550;2022-09-13T07:03:43;99931.59;;;16.72;100.00
54808;BME280;40708;50.364;7.550;2022-09-13T07:06:25;99932.22;;;16.80;100.00
54808;BME280;40708;50.364;7.550;2022-09-13T07:08:52;99921.41;;;16.83;100.00
54808;BME280;40708;50.364;7.550;2022-09-13T07:11:20;99923.78;;;16.92;100.00
54808;BME280;40708;50.364;7.550;2022-09-13T07:13:50;99917.25;;;17.00;100.00
54808;BME280;40708;50.364;7.550;2022-09-13T07:16:17;99936.09;;;17.23;100.00
54808;BME280;40708;50.364;7.550;2022-09-13T07:18:42;99937.38;;;17.38;100.00
54808;BME280;40708;50.364;7.550;2022-09-13T07:21:09;99947.19;;;17.39;100.00
54808;BME280;40708;50.364;7.550;2022-09-13T07:23:36;99957.31;;;17.31;100.00
54808;BME280;40708;50.364;7.550;2022-09-13T07:26:03;99954.34;;;17.39;100.00
54808;BME280;40708;50.364;7.550;2022-09-13T07:28:41;99948.50;;;17.52;100.00
54808;BME280;40708;50.364;7.550;2022-09-13T07:31:17;99956.28;;;17.84;100.00
54808;BME280;40708;50.364;7.550;2022-09-13T07:33:45;99940.69;;;17.94;100.00
54808;BME280;40708;50.364;7.550;2022-09-13T07:36:11;99930.91;;;18.16;100.00
54808;BME280;40708;50.364;7.550;2022-09-13T07:38:41;99930.03;;;18.39;100.00
54808;BME280;40708;50.364;7.550;2022-09-13T07:41:11;99930.06;;;18.61;100.00
54808;BME280;40708;50.364;7.550;2022-09-13T07:43:36;99924.69;;;18.61;100.00
54808;BME280;40708;50.364;7.550;2022-09-13T07:46:04;99922.75;;;19.08;100.00
54808;BME280;40708;50.364;7.550;2022-09-13T07:48:32;99934.59;;;19.24;100.00
54808;BME280;40708;50.364;7.550;2022-09-13T07:51:06;99930.38;;;19.38;100.00
54808;BME280;40708;50.364;7.550;2022-09-13T07:53:33;99924.38;;;19.52;100.00
54808;BME280;40708;50.364;7.550;2022-09-13T07:56:06;99917.16;;;19.54;100.00
54808;BME280;40708;50.364;7.550;2022-09-13T07:58:33;99917.38;;;19.68;100.00
54808;BME280;40708;50.364;7.550;2022-09-13T08:01:14;99905.59;;;19.71;100.00
54808;BME280;40708;50.364;7.550;2022-09-13T08:03:40;99909.75;;;19.39;100.00
54808;BME280;40708;50.364;7.550;2022-09-13T08:06:06;99912.16;;;19.45;100.00
54808;BME280;40708;50.364;7.550;2022-09-13T08:08:31;99919.97;;;19.51;100.00
54808;BME280;40708;50.364;7.550;2022-09-13T08:10:58;99926.50;;;19.45;100.00
54808;BME280;40708;50.364;7.550;2022-09-13T08:13:23;99928.91;;;19.30;100.00
54808;BME280;40708;50.364;7.550;2022-09-13T08:15:49;99915.28;;;19.34;100.00
54808;BME280;40708;50.364;7.550;2022-09-13T08:18:15;99918.88;;;19.35;100.00
54808;BME280;40708;50.364;7.550;2022-09-13T08:20:41;99922.41;;;19.35;100.00
54808;BME280;40708;50.364;7.550;2022-09-13T08:23:06;99928.00;;;19.31;100.00
54808;BME280;40708;50.364;7.550;2022-09-13T08:25:33;99935.88;;;18.72;100.00
54808;BME280;40708;50.364;7.550;2022-09-13T08:28:21;99921.94;;;18.62;100.00
54808;BME280;40708;50.364;7.550;2022-09-13T08:30:47;99920.25;;;18.60;100.00
54808;BME280;40708;50.364;7.550;2022-09-13T08:33:13;99921.16;;;18.37;100.00
54808;BME280;40708;50.364;7.550;2022-09-13T08:35:38;99915.25;;;18.27;100.00
54808;BME280;40708;50.364;7.550;2022-09-13T08:38:04;99915.91;;;18.11;100.00
54808;BME280;40708;50.364;7.550;2022-09-13T08:40:40;99910.84;;;18.03;100.00
54808;BME280;40708;50.364;7.550;2022-09-13T08:43:26;99911.75;;;18.02;100.00
54808;BME280;40708;50.364;7.550;2022-09-13T08:46:17;99935.22;;;17.97;100.00
54808;BME280;40708;50.364;7.550;2022-09-13T08:48:46;99936.66;;;18.07;100.00
54808;BME280;40708;50.364;7.550;2022-09-13T08:51:24;99943.72;;;18.10;100.00
54808;BME280;40708;50.364;7.550;2022-09-13T08:53:52;99945.13;;;18.18;100.00
54808;BME280;40708;50.364;7.550;2022-09-13T09:04:37;99946.13;;;18.62;100.00
54808;BME280;40708;50.364;7.550;2022-09-13T09:07:09;99942.31;;;18.89;100.00
54808;BME280;40708;50.364;7.550;2022-09-13T09:09:44;99930.94;;;19.05;100.00
54808;BME280;40708;50.364;7.550;2022-09-13T09:12:16;99932.97;;;19.20;100.00
54808;BME280;40708;50.364;7.550;2022-09-13T09:14:47;99925.34;;;19.09;100.00
54808;BME280;40708;50.364;7.550;2022-09-13T09:17:23;99926.63;;;19.42;100.00
54808;BME280;40708;50.364;7.550;2022-09-13T09:19:54;99922.53;;;19.54;100.00
54808;BME280;40708;50.364;7.550;2022-09-13T09:22:28;99930.38;;;19.58;100.00
54808;BME280;40708;50.364;7.550;2022-09-13T09:24:57;99922.97;;;19.84;100.00
54808;BME280;40708;50.364;7.550;2022-09-13T09:27:22;99928.75;;;20.13;100.00
54808;BME280;40708;50.364;7.550;2022-09-13T09:29:50;99915.38;;;20.31;100.00
54808;BME280;40708;50.364;7.550;2022-09-13T09:40:29;99940.63;;;21.37;100.00
54808;BME280;40708;50.364;7.550;2022-09-13T09:42:56;99937.31;;;21.49;100.00
54808;BME280;40708;50.364;7.550;2022-09-13T09:45:27;99928.00;;;21.89;100.00
54808;BME280;40708;50.364;7.550;2022-09-13T09:47:59;99927.50;;;22.31;100.00
54808;BME280;40708;50.364;7.550;2022-09-13T09:50:29;99928.22;;;22.50;100.00
54808;BME280;40708;50.364;7.550;2022-09-13T09:53:13;99923.13;;;22.28;100.00
54808;BME280;40708;50.364;7.550;2022-09-13T09:55:50;99918.78;;;22.41;100.00
54808;BME280;40708;50.364;7.550;2022-09-13T09:58:38;99920.91;;;22.68;100.00
54808;BME280;40708;50.364;7.550;2022-09-13T10:01:04;99917.56;;;22.94;100.00
54808;BME280;40708;50.364;7.550;2022-09-13T10:03:32;99911.53;;;22.89;100.00
54808;BME280;40708;50.364;7.550;2022-09-13T10:06:13;99918.66;;;23.51;100.00
54808;BME280;40708;50.364;7.550;2022-09-13T10:08:43;99917.41;;;23.42;100.00
54808;BME280;40708;50.364;7.550;2022-09-13T10:11:11;99925.34;;;23.59;100.00
54808;BME280;40708;50.364;7.550;2022-09-13T10:13:37;99926.22;;;23.30;100.00
54808;BME280;40708;50.364;7.550;2022-09-13T10:16:06;99925.72;;;23.08;100.00
54808;BME280;40708;50.364;7.550;2022-09-13T10:18:47;99929.59;;;23.49;100.00
54808;BME280;40708;50.364;7.550;2022-09-13T10:23:47;99920.59;;;23.49;100.00
54808;BME280;40708;50.364;7.550;2022-09-13T10:26:19;99923.63;;;23.58;100.00
54808;BME280;40708;50.364;7.550;2022-09-13T10:28:52;99921.28;;;23.52;100.00
54808;BME280;40708;50.364;7.550;2022-09-13T10:31:20;99921.88;;;24.15;100.00
54808;BME280;40708;50.364;7.550;2022-09-13T10:33:53;99911.03;;;24.30;100.00
54808;BME280;40708;50.364;7.550;2022-09-13T10:36:29;99907.72;;;23.96;100.00
54808;BME280;40708;50.364;7.550;2022-09-13T10:39:05;99910.47;;;24.10;100.00
54808;BME280;40708;50.364;7.550;2022-09-13T10:41:41;99908.16;;;24.03;100.00
54808;BME280;40708;50.364;7.550;2022-09-13T10:44:28;99905.19;;;24.07;100.00
54808;BME280;40708;50.364;7.550;2022-09-13T10:46:55;99908.41;;;24.14;100.00
54808;BME280;40708;50.364;7.550;2022-09-13T10:49:48;99897.84;;;24.38;100.00
54808;BME280;40708;50.364;7.550;2022-09-13T10:52:37;99892.84;;;24.58;100.00
54808;BME280;40708;50.364;7.550;2022-09-13T11:00:11;99876.44;;;24.74;100.00
54808;BME280;40708;50.364;7.550;2022-09-13T11:03:02;99863.69;;;25.15;100.00
54808;BME280;40708;50.364;7.550;2022-09-13T11:05:53;99850.03;;;25.42;100.00
54808;BME280;40708;50.364;7.550;2022-09-13T11:17:12;99850.50;;;26.12;100.00
54808;BME280;40708;50.364;7.550;2022-09-13T11:22:31;99827.56;;;26.03;100.00
54808;BME280;40708;50.364;7.550;2022-09-13T11:27:54;99812.22;;;26.75;100.00
54808;BME280;40708;50.364;7.550;2022-09-13T11:30:27;99821.13;;;26.89;100.00
54808;BME280;40708;50.364;7.550;2022-09-13T11:33:14;99810.59;;;26.72;100.00
54808;BME280;40708;50.364;7.550;2022-09-13T11:36:04;99814.34;;;26.95;100.00
54808;BME280;40708;50.364;7.550;2022-09-13T11:41:42;99809.31;;;27.12;100.00
54808;BME280;40708;50.364;7.550;2022-09-13T11:52:56;99808.94;;;26.10;100.00
54808;BME280;40708;50.364;7.550;2022-09-13T11:55:33;99809.50;;;26.75;100.00
54808;BME280;40708;50.364;7.550;2022-09-13T11:58:04;99812.53;;;26.83;100.00
54808;BME280;40708;50.364;7.550;2022-09-13T12:00:44;99801.69;;;26.70;100.00
54808;BME280;40708;50.364;7.550;2022-09-13T12:03:24;99793.31;;;26.73;100.00
54808;BME280;40708;50.364;7.550;2022-09-13T12:06:14;99780.25;;;27.24;100.00
54808;BME280;40708;50.364;7.550;2022-09-13T12:09:06;99789.06;;;26.69;100.00
54808;BME280;40708;50.364;7.550;2022-09-13T12:11:41;99795.81;;;27.11;100.00
54808;BME280;40708;50.364;7.550;2022-09-13T12:14:21;99800.81;;;26.22;100.00
54808;BME280;40708;50.364;7.550;2022-09-13T12:16:50;99803.91;;;26.89;100.00
54808;BME280;40708;50.364;7.550;2022-09-13T12:19:25;99792.91;;;27.36;100.00
54808;BME280;40708;50.364;7.550;2022-09-13T12:21:55;99790.38;;;27.68;100.00
54808;BME280;40708;50.364;7.550;2022-09-13T12:24:41;99780.47;;;27.78;100.00
54808;BME280;40708;50.364;7.550;2022-09-13T12:27:30;99786.03;;;27.54;100.00
54808;BME280;40708;50.364;7.550;2022-09-13T12:32:31;99775.88;;;27.56;100.00
54808;BME280;40708;50.364;7.550;2022-09-13T12:34:57;99783.25;;;27.32;100.00
54808;BME280;40708;50.364;7.550;2022-09-13T12:46:29;99770.38;;;26.41;100.00
54808;BME280;40708;50.364;7.550;2022-09-13T12:59:54;99773.44;;;26.60;100.00
54808;BME280;40708;50.364;7.550;2022-09-13T13:04:51;99762.34;;;26.03;100.00
54808;BME280;40708;50.364;7.550;2022-09-13T13:07:21;99751.78;;;25.98;100.00
54808;BME280;40708;50.364;7.550;2022-09-13T13:09:49;99752.09;;;26.19;100.00
54808;BME280;40708;50.364;7.550;2022-09-13T13:12:39;99749.78;;;25.39;100.00
54808;BME280;40708;50.364;7.550;2022-09-13T13:17:43;99760.47;;;25.55;100.00
54808;BME280;40708;50.364;7.550;2022-09-13T13:21:03;99757.31;;;25.35;100.00
54808;BME280;40708;50.364;7.550;2022-09-13T13:23:31;99752.06;;;25.20;100.00
54808;BME280;40708;50.364;7.550;2022-09-13T13:34:03;99759.00;;;24.86;100.00
54808;BME280;40708;50.364;7.550;2022-09-13T13:36:46;99749.34;;;25.07;100.00
54808;BME280;40708;50.364;7.550;2022-09-13T13:42:01;99761.50;;;24.89;100.00
54808;BME280;40708;50.364;7.550;2022-09-13T13:50:11;99772.81;;;24.01;100.00
54808;BME280;40708;50.364;7.550;2022-09-13T13:52:38;99773.25;;;23.67;100.00
54808;BME280;40708;50.364;7.550;2022-09-13T13:55:43;99775.84;;;23.68;100.00
54808;BME280;40708;50.364;7.550;2022-09-13T13:58:30;99786.22;;;23.48;100.00
54808;BME280;40708;50.364;7.550;2022-09-13T14:01:00;99796.38;;;23.15;100.00
54808;BME280;40708;50.364;7.550;2022-09-13T14:03:49;99795.81;;;23.24;100.00
54808;BME280;40708;50.364;7.550;2022-09-13T14:09:02;99790.63;;;23.05;100.00
54808;BME280;40708;50.364;7.550;2022-09-13T14:11:44;99780.28;;;22.97;100.00
54808;BME280;40708;50.364;7.550;2022-09-13T14:14:27;99780.91;;;23.17;100.00
54808;BME280;40708;50.364;7.550;2022-09-13T14:19:52;99781.69;;;23.33;100.00
54808;BME280;40708;50.364;7.550;2022-09-13T14:22:26;99783.63;;;23.17;100.00
54808;BME280;40708;50.364;7.550;2022-09-13T14:24:54;99774.97;;;22.96;100.00
54808;BME280;40708;50.364;7.550;2022-09-13T14:27:21;99778.09;;;23.04;100.00
54808;BME280;40708;50.364;7.550;2022-09-13T14:29:55;99769.41;;;23.27;100.00
54808;BME280;40708;50.364;7.550;2022-09-13T14:32:24;99783.00;;;23.41;100.00
54808;BME280;40708;50.364;7.550;2022-09-13T14:34:57;99774.44;;;23.33;100.00
54808;BME280;40708;50.364;7.550;2022-09-13T14:37:34;99772.31;;;23.24;100.00
54808;BME280;40708;50.364;7.550;2022-09-13T14:40:16;99774.25;;;23.22;100.00
54808;BME280;40708;50.364;7.550;2022-09-13T14:42:45;99774.63;;;23.30;100.00
54808;BME280;40708;50.364;7.550;2022-09-13T14:45:25;99763.28;;;23.39;100.00
54808;BME280;40708;50.364;7.550;2022-09-13T14:50:32;99756.88;;;23.54;100.00
54808;BME280;40708;50.364;7.550;2022-09-13T14:53:02;99755.75;;;23.44;100.00
54808;BME280;40708;50.364;7.550;2022-09-13T14:55:30;99759.94;;;23.20;100.00
54808;BME280;40708;50.364;7.550;2022-09-13T14:58:00;99745.81;;;23.01;100.00
54808;BME280;40708;50.364;7.550;2022-09-13T15:00:30;99747.78;;;22.83;100.00
54808;BME280;40708;50.364;7.550;2022-09-13T15:03:10;99752.25;;;22.84;100.00
54808;BME280;40708;50.364;7.550;2022-09-13T15:05:37;99756.34;;;23.05;100.00
54808;BME280;40708;50.364;7.550;2022-09-13T15:10:50;99748.72;;;23.12;100.00
54808;BME280;40708;50.364;7.550;2022-09-13T15:13:15;99743.31;;;23.12;100.00
54808;BME280;40708;50.364;7.550;2022-09-13T15:15:43;99748.94;;;23.23;100.00
54808;BME280;40708;50.364;7.550;2022-09-13T15:21:00;99747.50;;;23.32;100.00
54808;BME280;40708;50.364;7.550;2022-09-13T15:23:31;99747.03;;;23.39;100.00
54808;BME280;40708;50.364;7.550;2022-09-13T15:26:12;99746.66;;;23.45;100.00
54808;BME280;40708;50.364;7.550;2022-09-13T15:31:30;99738.31;;;23.34;100.00
54808;BME280;40708;50.364;7.550;2022-09-13T15:36:36;99736.16;;;23.25;100.00
54808;BME280;40708;50.364;7.550;2022-09-13T15:41:39;99738.13;;;23.37;100.00
54808;BME280;40708;50.364;7.550;2022-09-13T15:44:07;99740.44;;;23.43;100.00
54808;BME280;40708;50.364;7.550;2022-09-13T15:46:42;99737.66;;;23.45;100.00
54808;BME280;40708;50.364;7.550;2022-09-13T15:49:14;99734.28;;;23.41;100.00
54808;BME280;40708;50.364;7.550;2022-09-13T15:51:41;99739.47;;;23.30;100.00
54808;BME280;40708;50.364;7.550;2022-09-13T15:54:14;99734.16;;;23.29;100.00
54808;BME280;40708;50.364;7.550;2022-09-13T15:56:42;99728.56;;;23.32;100.00